Time;durP1;ratioP1;P1;durP2;ratioP2;P2;SDS_P1;SDS_P2;PMS_P1;PMS_P2;Temp;Humidity;BMP_temperature;BMP_pressure;BME280_temperature;BME280_humidity;BME280_pressure;Samples;Min_cycle;Max_cycle;Signal;HPM_P1;HPM_P2
2023/01/21 00:01:46;;;;;;;32.88;15.60;;;0.60;99.90;;;;;;5062600;28;20037;-78
2023/01/21 00:04:12;;;;;;;32.70;15.63;;;0.50;99.90;;;;;;5071140;28;20036;-78
2023/01/21 00:06:37;;;;;;;35.60;17.48;;;0.50;99.90;;;;;;5060534;28;20132;-81
2023/01/21 00:09:03;;;;;;;33.88;16.77;;;0.50;99.90;;;;;;5060610;28;20072;-78
2023/01/21 00:11:29;;;;;;;39.28;17.73;;;0.50;99.90;;;;;;5061809;28;20075;-78
2023/01/21 00:13:54;;;;;;;32.15;16.10;;;0.50;99.90;;;;;;5061890;28;20115;-79
2023/01/21 00:16:20;;;;;;;34.30;16.45;;;0.50;99.90;;;;;;5065305;28;20041;-78
2023/01/21 00:18:48;;;;;;;34.17;16.58;;;0.40;99.90;;;;;;5043930;28;20048;-80
2023/01/21 00:21:14;;;;;;;33.78;16.90;;;0.40;99.90;;;;;;5062266;28;20036;-79
2023/01/21 00:23:40;;;;;;;36.22;17.40;;;0.40;99.90;;;;;;5035931;28;20033;-81
2023/01/21 00:26:07;;;;;;;35.83;17.50;;;0.40;99.90;;;;;;5047153;28;20151;-78
2023/01/21 00:28:34;;;;;;;36.92;17.60;;;0.40;99.90;;;;;;5067175;28;20068;-78
2023/01/21 00:31:02;;;;;;;37.95;16.63;;;0.30;99.90;;;;;;5066053;28;20048;-81
2023/01/21 00:33:29;;;;;;;36.08;17.83;;;0.30;99.90;;;;;;5063364;28;20033;-82
2023/01/21 00:36:11;;;;;;;35.65;16.90;;;0.30;99.90;;;;;;5053822;28;20421;-79
2023/01/21 00:38:38;;;;;;;35.65;16.90;;;0.30;99.90;;;;;;5050225;28;20095;-82
2023/01/21 00:41:10;;;;;;;33.85;16.13;;;0.30;99.90;;;;;;5065618;28;20045;-79
2023/01/21 00:43:35;;;;;;;37.00;17.63;;;0.30;99.90;;;;;;5057901;28;20029;-78
2023/01/21 00:46:01;;;;;;;36.05;17.10;;;0.30;99.90;;;;;;5038670;28;20041;-79
2023/01/21 00:48:29;;;;;;;39.38;16.58;;;0.30;99.90;;;;;;5049425;28;20120;-79
2023/01/21 00:51:08;;;;;;;35.65;17.38;;;0.30;99.90;;;;;;5053218;28;20072;-78
2023/01/21 00:53:36;;;;;;;38.22;18.23;;;0.30;99.90;;;;;;5052967;28;20047;-78
2023/01/21 00:56:05;;;;;;;34.92;16.83;;;0.30;99.90;;;;;;5058627;28;20047;-78
2023/01/21 00:58:32;;;;;;;33.63;16.85;;;0.20;99.90;;;;;;5059299;28;20144;-81
2023/01/21 01:01:03;;;;;;;36.80;17.85;;;0.20;99.90;;;;;;5054831;28;20490;-79
2023/01/21 01:03:29;;;;;;;38.75;18.08;;;0.30;99.90;;;;;;5064870;28;20052;-78
2023/01/21 01:05:54;;;;;;;41.17;18.50;;;0.30;99.90;;;;;;5062011;28;20529;-78
2023/01/21 01:08:20;;;;;;;38.65;19.63;;;0.30;99.90;;;;;;5071041;28;20096;-78
2023/01/21 01:10:46;;;;;;;42.67;19.00;;;0.50;99.90;;;;;;5061911;28;20072;-79
2023/01/21 01:13:11;;;;;;;42.78;19.48;;;0.40;99.90;;;;;;5050310;28;20037;-78
2023/01/21 01:15:37;;;;;;;40.35;18.42;;;0.40;99.90;;;;;;5062363;28;20040;-81
2023/01/21 01:18:03;;;;;;;40.92;18.65;;;0.40;99.90;;;;;;5042704;28;20032;-79
2023/01/21 01:20:28;;;;;;;42.22;19.25;;;0.40;99.90;;;;;;5045887;28;20097;-78
2023/01/21 01:22:54;;;;;;;43.35;19.80;;;0.50;99.90;;;;;;5056361;28;20504;-78
2023/01/21 01:25:19;;;;;;;43.42;20.10;;;0.50;99.90;;;;;;5054879;28;20060;-80
2023/01/21 01:27:45;;;;;;;42.00;19.38;;;0.50;99.90;;;;;;5066254;28;20032;-78
2023/01/21 01:30:11;;;;;;;41.63;19.52;;;0.60;99.90;;;;;;5043448;28;20036;-78
2023/01/21 01:32:37;;;;;;;39.72;18.65;;;0.50;99.90;;;;;;5060948;28;20520;-78
2023/01/21 01:35:02;;;;;;;43.00;20.33;;;0.60;99.90;;;;;;5063792;28;20051;-78
2023/01/21 01:37:28;;;;;;;44.20;20.38;;;0.60;99.90;;;;;;5062683;28;20511;-79
2023/01/21 01:39:53;;;;;;;42.92;19.40;;;0.60;99.90;;;;;;5066201;28;20047;-78
2023/01/21 01:42:19;;;;;;;43.08;19.80;;;0.60;99.90;;;;;;5054245;28;20485;-78
2023/01/21 01:44:47;;;;;;;41.88;19.02;;;0.60;99.90;;;;;;5060874;28;20038;-78
2023/01/21 01:47:14;;;;;;;42.38;20.08;;;0.60;99.90;;;;;;5058826;28;20041;-78
2023/01/21 01:49:40;;;;;;;42.15;19.10;;;0.60;99.90;;;;;;5038816;28;20041;-78
2023/01/21 01:52:07;;;;;;;48.40;20.15;;;0.60;99.90;;;;;;5063084;28;20063;-78
2023/01/21 01:54:47;;;;;;;42.60;19.42;;;0.70;99.90;;;;;;5058160;28;20047;-79
2023/01/21 01:57:17;;;;;;;40.42;19.63;;;0.70;99.90;;;;;;5060387;28;20551;-79
2023/01/21 01:59:44;;;;;;;43.67;19.40;;;0.70;99.90;;;;;;5064145;28;20064;-82
2023/01/21 02:02:14;;;;;;;44.03;19.88;;;0.70;99.90;;;;;;5067244;28;20488;-78
2023/01/21 02:04:57;;;;;;;42.33;19.90;;;0.70;99.90;;;;;;5064974;28;20037;-78
2023/01/21 02:07:25;;;;;;;44.75;20.05;;;0.70;99.90;;;;;;5055405;28;20044;-78
2023/01/21 02:09:52;;;;;;;42.55;19.77;;;0.70;99.90;;;;;;5050905;28;20045;-78
2023/01/21 02:12:18;;;;;;;41.80;18.92;;;0.70;99.90;;;;;;5058118;28;20043;-81
2023/01/21 02:14:44;;;;;;;43.83;20.13;;;0.70;99.90;;;;;;5065192;28;20396;-78
2023/01/21 02:17:35;;;;;;;36.88;18.27;;;0.70;99.90;;;;;;5035518;28;20033;-78
2023/01/21 02:20:16;;;;;;;41.15;19.88;;;0.70;99.90;;;;;;5063779;28;20051;-78
2023/01/21 02:22:51;;;;;;;46.72;19.27;;;0.70;99.90;;;;;;5054173;28;20128;-78
2023/01/21 02:25:29;;;;;;;45.75;19.58;;;0.70;99.90;;;;;;5060421;28;20366;-78
2023/01/21 02:28:22;;;;;;;43.85;19.08;;;0.70;99.90;;;;;;5058622;28;20132;-78
2023/01/21 02:31:06;;;;;;;43.88;19.30;;;0.80;99.90;;;;;;5064806;28;20041;-82
2023/01/21 02:34:02;;;;;;;47.22;20.73;;;0.80;99.90;;;;;;5047885;28;20446;-78
2023/01/21 02:36:40;;;;;;;42.95;20.35;;;0.70;99.90;;;;;;5037689;28;20048;-78
2023/01/21 02:39:15;;;;;;;45.10;20.00;;;0.80;99.90;;;;;;5043574;28;20048;-78
2023/01/21 02:41:49;;;;;;;45.60;19.65;;;0.70;99.90;;;;;;5065114;28;20041;-78
2023/01/21 02:44:47;;;;;;;42.92;19.00;;;0.80;99.90;;;;;;5055098;28;20043;-78
2023/01/21 02:47:17;;;;;;;43.10;19.52;;;0.80;99.90;;;;;;5058072;28;20040;-78
2023/01/21 02:49:58;;;;;;;42.25;19.15;;;1.80;99.90;;;;;;5058504;28;20045;-79
2023/01/21 02:52:25;;;;;;;46.03;19.90;;;0.80;99.90;;;;;;5041424;28;20097;-78
2023/01/21 02:54:56;;;;;;;44.35;19.48;;;0.80;99.90;;;;;;5060297;28;20041;-78
2023/01/21 02:57:37;;;;;;;42.80;20.45;;;0.80;99.90;;;;;;5065425;28;20063;-78
2023/01/21 03:00:11;;;;;;;44.25;19.73;;;0.80;99.90;;;;;;5063582;28;20045;-80
2023/01/21 03:03:08;;;;;;;46.33;20.02;;;0.80;99.90;;;;;;5065873;28;20040;-78
2023/01/21 03:06:06;;;;;;;37.92;18.48;;;0.80;99.90;;;;;;5069552;28;20119;-78
2023/01/21 03:08:52;;;;;;;40.92;17.90;;;0.80;99.90;;;;;;5035528;28;20229;-78
2023/01/21 03:11:20;;;;;;;45.63;18.30;;;0.80;99.90;;;;;;5046317;28;20051;-78
2023/01/21 03:17:08;;;;;;;48.08;18.25;;;0.90;99.90;;;;;;5061878;28;20071;-78
2023/01/21 03:19:42;;;;;;;39.05;17.95;;;0.80;99.90;;;;;;5059671;28;20052;-78
2023/01/21 03:22:13;;;;;;;38.13;17.45;;;0.90;99.90;;;;;;5061778;28;20045;-78
2023/01/21 03:24:42;;;;;;;42.30;19.58;;;0.90;99.90;;;;;;5055789;28;20048;-79
2023/01/21 03:27:11;;;;;;;41.03;18.70;;;0.90;99.90;;;;;;5045588;28;20036;-79
2023/01/21 03:29:40;;;;;;;41.13;19.50;;;0.90;99.90;;;;;;5060470;28;20037;-78
2023/01/21 03:32:08;;;;;;;42.17;18.50;;;0.90;99.90;;;;;;5056757;28;20065;-78
2023/01/21 03:34:40;;;;;;;42.75;18.27;;;0.90;99.90;;;;;;5058373;28;20071;-78
2023/01/21 03:37:18;;;;;;;40.17;18.02;;;0.90;99.90;;;;;;5056357;28;20174;-78
2023/01/21 03:40:19;;;;;;;43.13;19.50;;;0.90;99.90;;;;;;5062550;28;20041;-78
2023/01/21 03:42:46;;;;;;;47.25;19.40;;;0.90;99.90;;;;;;5079133;28;20041;-78
2023/01/21 03:45:13;;;;;;;46.95;19.33;;;0.90;99.90;;;;;;5050245;28;20044;-78
2023/01/21 03:47:42;;;;;;;48.92;20.27;;;0.90;99.90;;;;;;5056002;28;20082;-79
2023/01/21 03:50:22;;;;;;;43.45;19.50;;;0.90;99.90;;;;;;5068577;28;20131;-79
2023/01/21 03:52:48;;;;;;;44.55;19.65;;;1.40;99.90;;;;;;5059211;28;20119;-81
2023/01/21 03:55:15;;;;;;;42.00;19.05;;;1.00;99.90;;;;;;5065446;28;20124;-78
2023/01/21 03:57:41;;;;;;;46.67;20.05;;;1.00;99.90;;;;;;5062470;28;20393;-78
2023/01/21 04:00:07;;;;;;;46.70;19.98;;;1.10;99.90;;;;;;5038021;28;20433;-78
2023/01/21 04:02:33;;;;;;;49.25;19.67;;;1.00;99.90;;;;;;5062158;28;20094;-78
2023/01/21 04:04:59;;;;;;;48.10;21.38;;;0.90;99.90;;;;;;5062987;28;20052;-78
2023/01/21 04:07:24;;;;;;;50.80;21.63;;;1.90;99.90;;;;;;5063034;28;20043;-78
2023/01/21 04:09:50;;;;;;;49.55;22.00;;;0.90;99.90;;;;;;5062522;28;20090;-80
2023/01/21 04:12:16;;;;;;;53.03;21.75;;;0.90;99.90;;;;;;5060985;28;20036;-83
2023/01/21 04:14:44;;;;;;;49.80;21.52;;;0.90;99.90;;;;;;5050918;28;20032;-78
2023/01/21 04:17:10;;;;;;;48.85;21.48;;;2.10;99.90;;;;;;5061472;28;20072;-78
2023/01/21 04:19:36;;;;;;;48.75;22.45;;;0.90;99.90;;;;;;5067250;28;20111;-78
2023/01/21 04:22:01;;;;;;;49.58;21.30;;;0.90;99.90;;;;;;5061623;28;20033;-78
2023/01/21 04:24:27;;;;;;;56.58;22.05;;;0.90;99.90;;;;;;5061925;28;20129;-78
2023/01/21 04:26:55;;;;;;;55.55;22.95;;;0.90;99.90;;;;;;5057041;28;20045;-80
2023/01/21 04:29:33;;;;;;;50.58;22.30;;;1.70;99.90;;;;;;5051477;28;20397;-79
2023/01/21 04:32:03;;;;;;;51.60;22.13;;;1.10;99.90;;;;;;5069496;28;20036;-81
2023/01/21 04:34:28;;;;;;;55.80;22.67;;;0.90;99.90;;;;;;5046020;28;20039;-78
2023/01/21 04:36:54;;;;;;;49.53;22.38;;;0.90;99.90;;;;;;5036290;28;20029;-78
2023/01/21 04:39:44;;;;;;;52.45;23.67;;;0.90;99.90;;;;;;5059192;28;20116;-79
2023/01/21 04:42:19;;;;;;;55.05;23.90;;;0.90;99.90;;;;;;5059918;28;20047;-78
2023/01/21 04:44:53;;;;;;;49.78;22.40;;;0.90;99.90;;;;;;5049735;28;20036;-80
2023/01/21 04:47:19;;;;;;;52.88;22.90;;;0.90;99.90;;;;;;5049727;28;20068;-80
2023/01/21 04:49:45;;;;;;;49.25;21.80;;;0.90;99.90;;;;;;5062406;28;20068;-80
2023/01/21 04:52:10;;;;;;;52.10;21.80;;;0.90;99.90;;;;;;5070939;28;20024;-81
2023/01/21 04:54:45;;;;;;;53.92;23.17;;;0.90;99.90;;;;;;5064443;28;20470;-81
2023/01/21 04:57:17;;;;;;;51.33;23.17;;;0.80;99.90;;;;;;5048135;28;20033;-81
2023/01/21 04:59:43;;;;;;;55.28;22.95;;;0.80;99.90;;;;;;5059371;28;20437;-81
2023/01/21 05:02:08;;;;;;;49.90;23.33;;;0.80;99.90;;;;;;5064321;28;20041;-81
2023/01/21 05:04:37;;;;;;;54.35;23.75;;;0.70;99.90;;;;;;5062539;28;20032;-80
2023/01/21 05:07:02;;;;;;;52.15;23.13;;;0.70;99.90;;;;;;5062609;28;20045;-80
2023/01/21 05:09:28;;;;;;;54.35;23.92;;;0.70;99.90;;;;;;5063501;28;20382;-80
2023/01/21 05:11:54;;;;;;;47.83;21.50;;;0.70;99.90;;;;;;5053832;28;20052;-80
2023/01/21 05:14:19;;;;;;;52.63;23.63;;;0.70;99.90;;;;;;5055699;28;20512;-80
2023/01/21 05:16:45;;;;;;;50.90;23.67;;;0.70;99.90;;;;;;5070625;28;20029;-80
2023/01/21 05:19:11;;;;;;;54.00;22.75;;;0.70;99.90;;;;;;5069417;28;20082;-80
2023/01/21 05:21:36;;;;;;;54.08;23.25;;;0.70;99.90;;;;;;5067616;28;20040;-81
2023/01/21 05:24:02;;;;;;;53.20;23.15;;;0.70;99.90;;;;;;5067218;28;20048;-80
2023/01/21 05:26:28;;;;;;;49.05;22.25;;;0.70;99.90;;;;;;5061940;28;20079;-80
2023/01/21 05:28:53;;;;;;;51.47;22.00;;;0.70;99.90;;;;;;5046330;28;20033;-80
2023/01/21 05:31:19;;;;;;;51.03;23.08;;;0.70;99.90;;;;;;5071076;28;20029;-80
2023/01/21 05:33:46;;;;;;;47.25;20.42;;;0.70;99.90;;;;;;5060334;28;20501;-81
2023/01/21 05:36:11;;;;;;;49.50;21.90;;;0.70;99.90;;;;;;5069646;28;20039;-80
2023/01/21 05:38:37;;;;;;;46.42;20.33;;;0.60;99.90;;;;;;5061019;28;20029;-81
2023/01/21 05:41:04;;;;;;;48.90;21.63;;;0.70;99.90;;;;;;5051218;28;20045;-81
2023/01/21 05:43:30;;;;;;;51.88;22.73;;;0.70;99.90;;;;;;5044127;28;20098;-81
2023/01/21 05:45:56;;;;;;;47.50;20.88;;;0.70;99.90;;;;;;5048829;28;20044;-81
2023/01/21 05:48:22;;;;;;;54.42;20.73;;;0.70;99.90;;;;;;5048441;28;20550;-80
2023/01/21 05:50:58;;;;;;;48.03;20.17;;;0.70;99.90;;;;;;5068908;28;20036;-81
2023/01/21 05:53:24;;;;;;;46.10;18.83;;;0.70;99.90;;;;;;5042855;28;20032;-80
2023/01/21 05:55:53;;;;;;;39.08;17.23;;;0.70;99.90;;;;;;5052172;28;20028;-80
2023/01/21 05:58:20;;;;;;;40.97;17.30;;;0.80;99.90;;;;;;5056205;28;20096;-80
2023/01/21 06:00:47;;;;;;;41.90;15.57;;;0.80;99.90;;;;;;5075566;28;20032;-80
2023/01/21 06:03:13;;;;;;;36.53;14.68;;;0.80;99.90;;;;;;5078148;28;20037;-78
2023/01/21 06:05:40;;;;;;;36.30;14.32;;;0.80;99.90;;;;;;5062494;28;20045;-79
2023/01/21 06:08:06;;;;;;;36.92;15.10;;;0.90;99.90;;;;;;5067569;28;20033;-79
2023/01/21 06:10:32;;;;;;;34.42;14.75;;;0.90;99.90;;;;;;5071205;28;20068;-80
2023/01/21 06:12:57;;;;;;;37.35;14.77;;;0.90;99.90;;;;;;5065705;28;20040;-80
2023/01/21 06:15:24;;;;;;;42.10;15.60;;;1.60;99.90;;;;;;5059573;28;20040;-78
2023/01/21 06:17:51;;;;;;;37.30;15.27;;;0.90;99.90;;;;;;5077405;28;20076;-80
2023/01/21 06:20:16;;;;;;;37.42;14.95;;;0.90;99.90;;;;;;5063988;28;20037;-80
2023/01/21 06:22:42;;;;;;;35.85;14.85;;;1.00;99.90;;;;;;5070680;28;20107;-80
2023/01/21 06:25:08;;;;;;;36.97;15.13;;;1.00;99.90;;;;;;5074917;28;20056;-80
2023/01/21 06:27:36;;;;;;;35.90;14.75;;;1.00;99.90;;;;;;5075855;28;20082;-78
2023/01/21 06:30:02;;;;;;;36.70;15.23;;;1.20;99.90;;;;;;5071518;28;20072;-78
2023/01/21 06:32:28;;;;;;;37.70;15.00;;;1.00;99.90;;;;;;5066411;28;20111;-78
2023/01/21 06:34:54;;;;;;;41.85;15.30;;;1.00;99.90;;;;;;5064319;28;20094;-78
2023/01/21 06:37:19;;;;;;;37.25;16.00;;;1.00;99.90;;;;;;5062359;28;20040;-78
2023/01/21 06:39:45;;;;;;;36.53;14.88;;;1.00;99.90;;;;;;5077955;28;20036;-78
2023/01/21 06:42:13;;;;;;;36.67;14.48;;;1.00;99.90;;;;;;5073359;28;20071;-77
2023/01/21 06:44:39;;;;;;;35.83;14.95;;;1.80;99.90;;;;;;5061538;28;20606;-78
2023/01/21 06:47:04;;;;;;;36.00;15.18;;;1.00;99.90;;;;;;5072661;28;20044;-77
2023/01/21 06:49:33;;;;;;;40.45;16.15;;;2.00;99.90;;;;;;5066589;28;20051;-78
2023/01/21 06:51:59;;;;;;;39.47;15.63;;;1.00;99.90;;;;;;5058253;28;20461;-78
2023/01/21 06:54:24;;;;;;;39.53;16.17;;;2.10;99.90;;;;;;5055284;28;20051;-78
2023/01/21 06:56:50;;;;;;;42.55;16.52;;;1.10;99.90;;;;;;5065653;28;20041;-78
2023/01/21 06:59:16;;;;;;;39.92;16.17;;;1.00;99.90;;;;;;5069143;28;20033;-78
2023/01/21 07:01:41;;;;;;;42.60;16.58;;;1.10;99.90;;;;;;5064862;28;20041;-78
2023/01/21 07:04:07;;;;;;;38.85;15.30;;;1.10;99.90;;;;;;5068260;28;20043;-77
2023/01/21 07:06:32;;;;;;;39.10;16.08;;;1.10;99.90;;;;;;5055992;28;20040;-78
2023/01/21 07:08:58;;;;;;;37.45;15.68;;;1.10;99.90;;;;;;5075310;28;20112;-80
2023/01/21 07:11:23;;;;;;;42.33;15.93;;;1.10;99.90;;;;;;5054398;28;20029;-80
2023/01/21 07:13:49;;;;;;;39.63;16.35;;;1.50;99.90;;;;;;5062679;28;20037;-80
2023/01/21 07:16:15;;;;;;;41.83;16.15;;;1.10;99.90;;;;;;5052524;28;20029;-80
2023/01/21 07:18:40;;;;;;;40.53;16.17;;;1.10;99.90;;;;;;5060993;28;20037;-80
2023/01/21 07:21:06;;;;;;;41.45;16.55;;;1.10;99.90;;;;;;5061250;28;20041;-80
2023/01/21 07:23:31;;;;;;;44.88;16.45;;;1.10;99.90;;;;;;5066983;28;20489;-80
2023/01/21 07:25:57;;;;;;;44.17;17.35;;;1.10;99.90;;;;;;5064770;28;20045;-80
2023/01/21 07:28:23;;;;;;;48.95;17.13;;;1.10;99.90;;;;;;5053842;28;20448;-80
2023/01/21 07:30:48;;;;;;;43.63;18.23;;;1.10;99.90;;;;;;5056624;28;20044;-80
2023/01/21 07:33:14;;;;;;;47.45;17.65;;;1.10;99.90;;;;;;5062820;28;20122;-80
2023/01/21 07:35:39;;;;;;;47.75;18.08;;;1.10;99.90;;;;;;5053547;28;20029;-79
2023/01/21 07:38:05;;;;;;;46.92;18.17;;;1.10;99.90;;;;;;5056698;28;20059;-80
2023/01/21 07:40:31;;;;;;;39.25;16.58;;;1.10;99.90;;;;;;5053839;28;20560;-79
2023/01/21 07:42:56;;;;;;;46.03;17.65;;;1.10;99.90;;;;;;5061626;28;20037;-79
2023/01/21 07:45:23;;;;;;;40.95;17.25;;;1.10;99.90;;;;;;5053635;28;20043;-80
2023/01/21 07:47:48;;;;;;;43.42;15.98;;;1.10;99.90;;;;;;5070252;28;20064;-80
2023/01/21 07:50:14;;;;;;;42.92;17.48;;;1.10;99.90;;;;;;5062922;28;20062;-79
2023/01/21 07:52:40;;;;;;;47.60;18.75;;;1.10;99.90;;;;;;5054610;28;20303;-80
2023/01/21 07:55:06;;;;;;;40.60;17.48;;;1.10;99.90;;;;;;5069513;28;20104;-82
2023/01/21 07:57:32;;;;;;;49.63;18.67;;;1.10;99.90;;;;;;5064590;28;20035;-83
2023/01/21 08:00:06;;;;;;;48.30;17.75;;;1.10;99.90;;;;;;5063918;28;20037;-82
2023/01/21 08:02:32;;;;;;;48.88;18.55;;;1.10;99.90;;;;;;5068961;28;20133;-82
2023/01/21 08:04:58;;;;;;;44.38;17.50;;;0.60;99.90;;;;;;5057110;28;20482;-80
2023/01/21 08:07:23;;;;;;;48.47;17.80;;;1.10;99.90;;;;;;5068916;28;20036;-80
2023/01/21 08:09:49;;;;;;;49.58;18.42;;;1.10;99.90;;;;;;5066272;28;20045;-79
2023/01/21 08:12:14;;;;;;;47.33;17.73;;;1.20;99.90;;;;;;5050201;28;20086;-80
2023/01/21 08:14:40;;;;;;;47.88;19.25;;;1.20;99.90;;;;;;5053200;28;20028;-80
2023/01/21 08:17:06;;;;;;;50.30;20.30;;;1.20;99.90;;;;;;5059408;28;20784;-80
2023/01/21 08:19:31;;;;;;;53.50;19.65;;;1.20;99.90;;;;;;5056625;28;20075;-79
2023/01/21 08:21:57;;;;;;;47.70;20.05;;;1.20;99.90;;;;;;5060987;28;20029;-79
2023/01/21 08:24:22;;;;;;;49.80;25.05;;;1.20;99.90;;;;;;5037000;28;20382;-78
2023/01/21 08:26:48;;;;;;;53.30;22.13;;;1.20;99.90;;;;;;5052377;28;20393;-80
2023/01/21 08:29:14;;;;;;;44.63;19.33;;;1.30;99.90;;;;;;5034692;28;20050;-81
2023/01/21 08:31:39;;;;;;;52.13;20.30;;;1.20;99.90;;;;;;5062744;28;20389;-80
2023/01/21 08:34:05;;;;;;;46.38;20.85;;;1.20;99.90;;;;;;5062665;28;20029;-79
2023/01/21 08:36:31;;;;;;;52.33;22.20;;;1.30;99.90;;;;;;5049885;28;20505;-79
2023/01/21 08:39:04;;;;;;;48.25;20.92;;;1.30;99.90;;;;;;5055544;28;20037;-78
2023/01/21 08:41:30;;;;;;;47.05;20.13;;;1.30;99.90;;;;;;5055505;28;20040;-77
2023/01/21 08:43:56;;;;;;;54.97;24.50;;;1.30;99.90;;;;;;5058012;28;20032;-80
2023/01/21 08:46:22;;;;;;;60.90;28.95;;;1.40;99.90;;;;;;5034538;28;20500;-79
2023/01/21 08:48:47;;;;;;;55.88;27.23;;;1.40;99.90;;;;;;5060027;28;20624;-79
2023/01/21 08:51:13;;;;;;;57.08;25.00;;;1.40;99.90;;;;;;5055393;28;20554;-78
2023/01/21 08:53:38;;;;;;;46.17;21.13;;;1.40;99.90;;;;;;5055454;28;20033;-77
2023/01/21 08:56:05;;;;;;;46.03;19.75;;;1.40;99.90;;;;;;5059654;28;20037;-79
2023/01/21 08:58:31;;;;;;;40.38;17.92;;;1.40;99.90;;;;;;5050934;28;20041;-79
2023/01/21 09:00:57;;;;;;;36.45;16.38;;;1.50;99.90;;;;;;5060652;28;20144;-79
2023/01/21 09:03:23;;;;;;;38.70;16.58;;;1.50;99.90;;;;;;5054577;28;20119;-78
2023/01/21 09:05:52;;;;;;;42.10;18.60;;;1.50;99.90;;;;;;5057646;28;20060;-78
2023/01/21 09:08:18;;;;;;;41.55;18.48;;;1.50;99.90;;;;;;5055788;28;20047;-78
2023/01/21 09:11:01;;;;;;;39.47;17.98;;;1.50;99.90;;;;;;5055469;28;20037;-78
2023/01/21 09:13:29;;;;;;;41.03;18.83;;;1.60;99.90;;;;;;5032039;28;20450;-80
2023/01/21 09:15:54;;;;;;;37.63;17.40;;;1.60;99.90;;;;;;5058161;28;20037;-78
2023/01/21 09:18:20;;;;;;;39.75;18.48;;;1.60;99.90;;;;;;5056471;28;20449;-78
2023/01/21 09:20:46;;;;;;;42.00;17.00;;;1.60;99.90;;;;;;5053547;28;20049;-78
2023/01/21 09:23:23;;;;;;;42.58;17.08;;;1.70;99.90;;;;;;5058012;28;20032;-78
2023/01/21 09:25:53;;;;;;;39.65;16.55;;;1.70;99.90;;;;;;5029749;28;20041;-80
2023/01/21 09:28:20;;;;;;;37.35;16.67;;;1.70;99.90;;;;;;5058499;28;20041;-78
2023/01/21 09:30:45;;;;;;;36.65;15.80;;;1.80;99.90;;;;;;5052901;28;20405;-79
2023/01/21 09:33:13;;;;;;;39.80;15.80;;;1.80;99.90;;;;;;5044077;28;20041;-80
2023/01/21 09:35:38;;;;;;;36.67;16.23;;;1.80;99.90;;;;;;5048986;28;20037;-79
2023/01/21 09:38:04;;;;;;;45.63;18.48;;;1.80;99.90;;;;;;5051019;28;20047;-79
2023/01/21 09:40:30;;;;;;;42.35;18.80;;;1.90;99.90;;;;;;5069041;28;20040;-78
2023/01/21 09:42:56;;;;;;;46.30;20.00;;;1.90;99.90;;;;;;5054274;28;20029;-78
2023/01/21 09:45:22;;;;;;;49.10;22.17;;;1.90;99.90;;;;;;5059516;28;20143;-80
2023/01/21 09:48:06;;;;;;;49.50;22.30;;;1.90;99.90;;;;;;5046995;28;20037;-83
2023/01/21 09:50:33;;;;;;;50.42;21.27;;;1.90;99.90;;;;;;5054540;28;20041;-79
2023/01/21 09:53:09;;;;;;;48.55;21.90;;;2.00;99.90;;;;;;5054894;28;20569;-78
2023/01/21 09:55:47;;;;;;;47.88;22.10;;;2.00;99.90;;;;;;5053359;28;20062;-78
2023/01/21 09:58:26;;;;;;;42.53;19.00;;;2.10;99.90;;;;;;5051003;28;20041;-79
2023/01/21 10:00:57;;;;;;;44.72;20.23;;;2.40;99.90;;;;;;5064249;28;20070;-79
2023/01/21 10:03:56;;;;;;;48.67;21.23;;;2.10;99.90;;;;;;5052927;28;20050;-79
2023/01/21 10:06:25;;;;;;;48.38;20.60;;;2.10;99.90;;;;;;5053699;28;20132;-80
2023/01/21 10:09:06;;;;;;;48.28;21.15;;;2.20;99.90;;;;;;5053220;28;20462;-78
2023/01/21 10:11:51;;;;;;;49.92;20.27;;;2.20;99.90;;;;;;5050455;28;20412;-78
2023/01/21 10:14:38;;;;;;;46.33;19.75;;;2.20;99.90;;;;;;5053965;28;20051;-79
2023/01/21 10:17:25;;;;;;;47.75;20.85;;;2.30;99.90;;;;;;5052872;28;20033;-79
2023/01/21 10:20:18;;;;;;;46.63;22.02;;;2.20;99.90;;;;;;5054511;28;20064;-80
2023/01/21 10:22:51;;;;;;;45.72;21.83;;;2.20;99.90;;;;;;5061276;28;20041;-79
2023/01/21 10:25:23;;;;;;;53.25;23.58;;;2.20;99.90;;;;;;5059418;28;20045;-79
2023/01/21 10:27:48;;;;;;;47.33;21.50;;;2.30;99.90;;;;;;5046883;28;20044;-79
2023/01/21 10:30:25;;;;;;;46.60;20.40;;;2.30;99.90;;;;;;5062554;28;20132;-78
2023/01/21 10:32:53;;;;;;;46.35;21.17;;;2.30;99.90;;;;;;5047452;28;20405;-79
2023/01/21 10:35:36;;;;;;;45.10;21.15;;;2.30;99.90;;;;;;5036934;28;20094;-79
2023/01/21 10:38:14;;;;;;;43.78;20.27;;;2.40;99.90;;;;;;5065699;28;20052;-79
2023/01/21 10:40:55;;;;;;;43.72;20.13;;;2.40;99.90;;;;;;5068034;28;20044;-79
2023/01/21 10:43:53;;;;;;;44.50;20.20;;;2.40;99.90;;;;;;5063468;28;20037;-79
2023/01/21 10:46:27;;;;;;;48.67;22.13;;;2.40;99.90;;;;;;5060767;28;20036;-79
2023/01/21 10:49:18;;;;;;;53.35;24.65;;;3.00;99.90;;;;;;5080427;28;20040;-79
2023/01/21 10:51:59;;;;;;;47.67;22.33;;;2.50;99.90;;;;;;5062072;28;20048;-79
2023/01/21 10:54:42;;;;;;;68.20;33.92;;;2.50;99.90;;;;;;5063859;28;20481;-79
2023/01/21 10:57:19;;;;;;;55.78;27.60;;;2.50;99.90;;;;;;5062397;28;20048;-79
2023/01/21 10:59:45;;;;;;;49.70;25.17;;;2.50;99.90;;;;;;5067421;28;20098;-78
2023/01/21 11:02:22;;;;;;;46.08;22.65;;;2.60;99.90;;;;;;5064257;28;20512;-78
2023/01/21 11:04:48;;;;;;;41.78;20.85;;;2.60;99.90;;;;;;5054922;28;20041;-79
2023/01/21 11:07:18;;;;;;;41.05;19.50;;;2.90;99.90;;;;;;5049179;28;20063;-79
2023/01/21 11:09:46;;;;;;;44.00;21.17;;;2.70;99.90;;;;;;5068952;28;20124;-78
2023/01/21 11:12:16;;;;;;;45.97;20.95;;;2.70;99.90;;;;;;5065027;28;20040;-79
2023/01/21 11:15:08;;;;;;;44.53;21.40;;;2.70;99.90;;;;;;5042902;28;20101;-78
2023/01/21 11:17:37;;;;;;;39.67;19.40;;;2.60;99.90;;;;;;5037573;28;20535;-79
2023/01/21 11:20:37;;;;;;;43.45;20.83;;;2.70;99.90;;;;;;5054402;28;20045;-79
2023/01/21 11:23:06;;;;;;;44.85;21.23;;;2.70;99.90;;;;;;5012132;28;20049;-78
2023/01/21 11:25:40;;;;;;;40.15;19.85;;;2.80;99.90;;;;;;5065244;28;20078;-78
2023/01/21 11:28:25;;;;;;;42.10;18.80;;;2.80;99.90;;;;;;5052302;28;20386;-78
2023/01/21 11:31:02;;;;;;;40.22;19.25;;;2.80;99.90;;;;;;5062642;28;20056;-78
2023/01/21 11:33:28;;;;;;;40.65;20.42;;;2.80;99.90;;;;;;5064983;28;20040;-79
2023/01/21 11:35:55;;;;;;;41.20;20.48;;;2.80;99.90;;;;;;5066428;28;20094;-79
2023/01/21 11:38:34;;;;;;;38.13;19.67;;;2.80;99.90;;;;;;5063845;28;20037;-78
2023/01/21 11:41:02;;;;;;;38.63;18.95;;;2.90;99.90;;;;;;5061462;28;20045;-79
2023/01/21 11:43:40;;;;;;;40.92;19.48;;;2.90;99.90;;;;;;5065111;28;20040;-79
2023/01/21 11:46:26;;;;;;;42.38;20.10;;;2.90;99.90;;;;;;5066799;28;20040;-78
2023/01/21 11:49:16;;;;;;;44.30;22.17;;;2.90;99.90;;;;;;5070364;28;20374;-79
2023/01/21 11:51:44;;;;;;;43.97;21.30;;;2.90;99.90;;;;;;5056816;28;20048;-79
2023/01/21 11:54:22;;;;;;;44.53;21.73;;;3.00;99.90;;;;;;5070414;28;20082;-79
2023/01/21 11:57:01;;;;;;;40.35;21.17;;;3.00;99.90;;;;;;5031970;28;20037;-82
2023/01/21 11:59:34;;;;;;;42.95;20.90;;;3.40;99.90;;;;;;5036832;28;20470;-79
2023/01/21 12:02:17;;;;;;;45.70;24.45;;;3.10;99.90;;;;;;5048461;28;20060;-78
2023/01/21 12:04:48;;;;;;;44.20;22.63;;;3.10;99.90;;;;;;5044729;28;20033;-79
2023/01/21 12:07:30;;;;;;;42.40;21.95;;;3.20;99.90;;;;;;5053883;28;20029;-79
2023/01/21 12:10:11;;;;;;;36.55;18.80;;;3.10;99.90;;;;;;5055473;28;20044;-80
2023/01/21 12:12:47;;;;;;;38.03;19.27;;;3.20;99.90;;;;;;5055150;28;20041;-79
2023/01/21 12:15:40;;;;;;;39.92;20.45;;;3.30;99.90;;;;;;5058960;28;20082;-78
2023/01/21 12:18:09;;;;;;;39.28;20.52;;;3.30;99.90;;;;;;5046096;28;20041;-79
2023/01/21 12:20:41;;;;;;;38.78;19.77;;;3.40;99.90;;;;;;5035268;28;20041;-80
2023/01/21 12:23:16;;;;;;;34.15;18.20;;;3.40;99.90;;;;;;5038724;28;20044;-79
2023/01/21 12:25:54;;;;;;;30.15;17.20;;;3.40;99.90;;;;;;5057269;28;20083;-78
2023/01/21 12:28:19;;;;;;;30.95;17.05;;;3.50;99.90;;;;;;5052509;28;20069;-79
2023/01/21 12:30:54;;;;;;;29.80;17.15;;;3.50;99.90;;;;;;5055095;28;20460;-79
2023/01/21 12:33:28;;;;;;;30.77;16.95;;;3.50;99.90;;;;;;5046758;28;20497;-78
2023/01/21 12:36:02;;;;;;;29.02;16.50;;;3.50;99.90;;;;;;5050616;28;20056;-79
2023/01/21 12:38:37;;;;;;;29.15;15.88;;;3.60;99.90;;;;;;5051136;28;20059;-79
2023/01/21 12:41:05;;;;;;;30.05;16.38;;;3.60;99.90;;;;;;5041413;28;20033;-79
2023/01/21 12:43:41;;;;;;;29.67;15.75;;;3.70;99.90;;;;;;5058198;28;20033;-79
2023/01/21 12:46:15;;;;;;;27.63;16.25;;;3.70;99.90;;;;;;5055137;28;20047;-79
2023/01/21 12:48:54;;;;;;;31.00;16.25;;;3.70;99.90;;;;;;5058042;28;20039;-79
2023/01/21 12:51:31;;;;;;;32.80;15.55;;;3.80;99.90;;;;;;5052263;28;20192;-78
2023/01/21 12:54:09;;;;;;;29.73;16.15;;;3.80;99.90;;;;;;5055827;28;20047;-79
2023/01/21 12:56:46;;;;;;;31.20;16.38;;;3.80;99.90;;;;;;5049837;28;20071;-79